sensor_id;sensor_type;location;lat;lon;timestamp;temperature;humidity
9043;DHT22;4556;49.150;8.808;2023-04-06T00:00:49;-0.60;99.90
9043;DHT22;4556;49.150;8.808;2023-04-06T00:03:16;-0.50;99.90
9043;DHT22;4556;49.150;8.808;2023-04-06T00:05:43;-0.50;99.90
9043;DHT22;4556;49.150;8.808;2023-04-06T00:08:11;-0.40;99.90
9043;DHT22;4556;49.150;8.808;2023-04-06T00:10:40;-0.40;99.90
9043;DHT22;4556;49.150;8.808;2023-04-06T00:13:07;-0.40;99.90
9043;DHT22;4556;49.150;8.808;2023-04-06T00:15:34;-0.50;99.90
9043;DHT22;4556;49.150;8.808;2023-04-06T00:18:02;-0.20;99.90
9043;DHT22;4556;49.150;8.808;2023-04-06T00:20:29;-0.60;99.90
9043;DHT22;4556;49.150;8.808;2023-04-06T00:22:56;-0.70;99.90
9043;DHT22;4556;49.150;8.808;2023-04-06T00:25:23;-0.40;99.90
9043;DHT22;4556;49.150;8.808;2023-04-06T00:27:52;-0.90;99.90
9043;DHT22;4556;49.150;8.808;2023-04-06T00:30:20;-1.00;99.90
9043;DHT22;4556;49.150;8.808;2023-04-06T00:32:47;-1.10;99.90
9043;DHT22;4556;49.150;8.808;2023-04-06T00:35:15;-0.90;99.90
9043;DHT22;4556;49.150;8.808;2023-04-06T00:37:42;-0.80;99.90
9043;DHT22;4556;49.150;8.808;2023-04-06T00:40:10;-0.90;99.90
9043;DHT22;4556;49.150;8.808;2023-04-06T00:42:37;-0.80;99.90
9043;DHT22;4556;49.150;8.808;2023-04-06T00:45:07;-1.00;99.90
9043;DHT22;4556;49.150;8.808;2023-04-06T00:47:34;-1.00;99.90
9043;DHT22;4556;49.150;8.808;2023-04-06T00:50:02;-0.40;99.90
9043;DHT22;4556;49.150;8.808;2023-04-06T00:52:29;-0.90;99.90
9043;DHT22;4556;49.150;8.808;2023-04-06T00:54:57;-0.80;99.90
9043;DHT22;4556;49.150;8.808;2023-04-06T00:57:24;-0.70;99.90
9043;DHT22;4556;49.150;8.808;2023-04-06T00:59:52;0.20;99.90
9043;DHT22;4556;49.150;8.808;2023-04-06T01:02:21;-0.70;99.90
9043;DHT22;4556;49.150;8.808;2023-04-06T01:04:48;-0.80;99.90
9043;DHT22;4556;49.150;8.808;2023-04-06T01:07:15;-0.90;99.90
9043;DHT22;4556;49.150;8.808;2023-04-06T01:09:42;-0.90;99.90
9043;DHT22;4556;49.150;8.808;2023-04-06T01:12:10;-0.90;99.90
9043;DHT22;4556;49.150;8.808;2023-04-06T01:14:37;-0.70;99.90
9043;DHT22;4556;49.150;8.808;2023-04-06T01:17:04;-0.50;99.90
9043;DHT22;4556;49.150;8.808;2023-04-06T01:19:33;-0.10;99.90
9043;DHT22;4556;49.150;8.808;2023-04-06T01:22:01;0.10;99.90
9043;DHT22;4556;49.150;8.808;2023-04-06T01:24:30;-0.50;99.90
9043;DHT22;4556;49.150;8.808;2023-04-06T01:26:57;-0.60;99.90
9043;DHT22;4556;49.150;8.808;2023-04-06T01:29:24;0.20;99.90
9043;DHT22;4556;49.150;8.808;2023-04-06T01:31:52;-0.30;99.90
9043;DHT22;4556;49.150;8.808;2023-04-06T01:34:19;-0.30;99.90
9043;DHT22;4556;49.150;8.808;2023-04-06T01:36:46;-0.20;99.90
9043;DHT22;4556;49.150;8.808;2023-04-06T01:39:13;-0.10;99.90
9043;DHT22;4556;49.150;8.808;2023-04-06T01:41:42;0.00;99.90
9043;DHT22;4556;49.150;8.808;2023-04-06T01:44:10;0.10;99.90
9043;DHT22;4556;49.150;8.808;2023-04-06T01:46:37;0.10;99.90
9043;DHT22;4556;49.150;8.808;2023-04-06T01:49:04;0.10;99.90
9043;DHT22;4556;49.150;8.808;2023-04-06T01:51:32;0.30;99.90
9043;DHT22;4556;49.150;8.808;2023-04-06T01:53:59;0.40;99.90
9043;DHT22;4556;49.150;8.808;2023-04-06T01:56:26;0.40;99.90
9043;DHT22;4556;49.150;8.808;2023-04-06T01:58:55;0.40;99.90
9043;DHT22;4556;49.150;8.808;2023-04-06T02:01:22;0.50;99.90
9043;DHT22;4556;49.150;8.808;2023-04-06T02:03:49;0.50;99.90
9043;DHT22;4556;49.150;8.808;2023-04-06T02:06:17;0.40;99.90
9043;DHT22;4556;49.150;8.808;2023-04-06T02:08:44;-0.40;99.90
9043;DHT22;4556;49.150;8.808;2023-04-06T02:11:11;1.10;99.90
9043;DHT22;4556;49.150;8.808;2023-04-06T02:13:38;0.70;99.90
9043;DHT22;4556;49.150;8.808;2023-04-06T02:16:08;0.60;99.90
9043;DHT22;4556;49.150;8.808;2023-04-06T02:18:35;0.70;99.90
9043;DHT22;4556;49.150;8.808;2023-04-06T02:21:02;0.70;99.90
9043;DHT22;4556;49.150;8.808;2023-04-06T02:23:30;0.80;99.90
9043;DHT22;4556;49.150;8.808;2023-04-06T02:25:57;0.80;99.90
9043;DHT22;4556;49.150;8.808;2023-04-06T02:28:24;0.70;99.90
9043;DHT22;4556;49.150;8.808;2023-04-06T02:30:51;0.80;99.90
9043;DHT22;4556;49.150;8.808;2023-04-06T02:33:20;0.70;99.90
9043;DHT22;4556;49.150;8.808;2023-04-06T02:35:47;0.70;99.90
9043;DHT22;4556;49.150;8.808;2023-04-06T02:38:14;0.90;99.90
9043;DHT22;4556;49.150;8.808;2023-04-06T02:40:41;1.20;99.90
9043;DHT22;4556;49.150;8.808;2023-04-06T02:43:08;1.30;99.90
9043;DHT22;4556;49.150;8.808;2023-04-06T02:45:36;1.00;99.90
9043;DHT22;4556;49.150;8.808;2023-04-06T02:48:03;1.00;99.90
9043;DHT22;4556;49.150;8.808;2023-04-06T02:50:32;0.90;99.90
9043;DHT22;4556;49.150;8.808;2023-04-06T02:52:59;0.90;99.90
9043;DHT22;4556;49.150;8.808;2023-04-06T02:55:27;0.80;99.90
9043;DHT22;4556;49.150;8.808;2023-04-06T02:57:54;0.70;99.90
9043;DHT22;4556;49.150;8.808;2023-04-06T03:00:21;0.70;99.90
9043;DHT22;4556;49.150;8.808;2023-04-06T03:02:48;0.70;99.90
9043;DHT22;4556;49.150;8.808;2023-04-06T03:05:16;0.70;99.90
9043;DHT22;4556;49.150;8.808;2023-04-06T03:07:45;0.70;99.90
9043;DHT22;4556;49.150;8.808;2023-04-06T03:10:12;1.40;99.90
9043;DHT22;4556;49.150;8.808;2023-04-06T03:12:39;0.70;99.90
9043;DHT22;4556;49.150;8.808;2023-04-06T03:15:08;0.80;99.90
9043;DHT22;4556;49.150;8.808;2023-04-06T03:17:36;0.80;99.90
9043;DHT22;4556;49.150;8.808;2023-04-06T03:20:03;0.70;99.90
9043;DHT22;4556;49.150;8.808;2023-04-06T03:22:31;0.80;99.90
9043;DHT22;4556;49.150;8.808;2023-04-06T03:24:59;0.70;99.90
9043;DHT22;4556;49.150;8.808;2023-04-06T03:27:27;0.50;99.90
9043;DHT22;4556;49.150;8.808;2023-04-06T03:29:54;1.10;99.90
9043;DHT22;4556;49.150;8.808;2023-04-06T03:32:21;0.60;99.90
9043;DHT22;4556;49.150;8.808;2023-04-06T03:34:48;0.60;99.90
9043;DHT22;4556;49.150;8.808;2023-04-06T03:37:16;0.50;99.90
9043;DHT22;4556;49.150;8.808;2023-04-06T03:39:43;1.10;99.90
9043;DHT22;4556;49.150;8.808;2023-04-06T03:42:12;0.10;99.90
9043;DHT22;4556;49.150;8.808;2023-04-06T03:44:39;-0.10;99.90
9043;DHT22;4556;49.150;8.808;2023-04-06T03:47:06;0.60;99.90
9043;DHT22;4556;49.150;8.808;2023-04-06T03:49:33;-0.20;99.90
9043;DHT22;4556;49.150;8.808;2023-04-06T03:52:01;0.30;99.90
9043;DHT22;4556;49.150;8.808;2023-04-06T03:54:28;-0.10;99.90
9043;DHT22;4556;49.150;8.808;2023-04-06T03:56:55;0.00;99.90
9043;DHT22;4556;49.150;8.808;2023-04-06T03:59:23;0.70;99.90
9043;DHT22;4556;49.150;8.808;2023-04-06T04:01:51;0.70;99.90
9043;DHT22;4556;49.150;8.808;2023-04-06T04:04:17;-0.20;99.90
9043;DHT22;4556;49.150;8.808;2023-04-06T04:06:44;-0.30;99.90
9043;DHT22;4556;49.150;8.808;2023-04-06T04:09:12;-0.40;99.90
9043;DHT22;4556;49.150;8.808;2023-04-06T04:11:39;-0.60;99.90
9043;DHT22;4556;49.150;8.808;2023-04-06T04:14:06;-0.60;99.90
9043;DHT22;4556;49.150;8.808;2023-04-06T04:16:35;-0.70;99.90
9043;DHT22;4556;49.150;8.808;2023-04-06T04:19:02;-0.60;99.90
9043;DHT22;4556;49.150;8.808;2023-04-06T04:21:31;-0.70;99.90
9043;DHT22;4556;49.150;8.808;2023-04-06T04:23:58;-0.70;99.90
9043;DHT22;4556;49.150;8.808;2023-04-06T04:26:25;-0.70;99.90
9043;DHT22;4556;49.150;8.808;2023-04-06T04:28:52;-0.70;99.90
9043;DHT22;4556;49.150;8.808;2023-04-06T04:31:19;-0.90;99.90
9043;DHT22;4556;49.150;8.808;2023-04-06T04:33:49;-0.80;99.90
9043;DHT22;4556;49.150;8.808;2023-04-06T04:36:16;-0.20;99.90
9043;DHT22;4556;49.150;8.808;2023-04-06T04:38:43;-0.30;99.90
9043;DHT22;4556;49.150;8.808;2023-04-06T04:41:11;0.30;99.90
9043;DHT22;4556;49.150;8.808;2023-04-06T04:43:38;-0.70;99.90
9043;DHT22;4556;49.150;8.808;2023-04-06T04:46:05;-0.70;99.90
9043;DHT22;4556;49.150;8.808;2023-04-06T04:48:32;-0.80;99.90
9043;DHT22;4556;49.150;8.808;2023-04-06T04:51:01;-0.90;99.90
9043;DHT22;4556;49.150;8.808;2023-04-06T04:53:29;-0.90;99.90
9043;DHT22;4556;49.150;8.808;2023-04-06T04:55:56;-0.20;99.90
9043;DHT22;4556;49.150;8.808;2023-04-06T04:58:23;-0.10;99.90
9043;DHT22;4556;49.150;8.808;2023-04-06T05:00:51;-0.90;99.90
9043;DHT22;4556;49.150;8.808;2023-04-06T05:03:21;-1.00;99.90
9043;DHT22;4556;49.150;8.808;2023-04-06T05:05:49;-0.90;99.90
9043;DHT22;4556;49.150;8.808;2023-04-06T05:08:17;-0.80;99.90
9043;DHT22;4556;49.150;8.808;2023-04-06T05:10:45;-0.70;99.90
9043;DHT22;4556;49.150;8.808;2023-04-06T05:13:13;-0.60;99.90
9043;DHT22;4556;49.150;8.808;2023-04-06T05:15:41;-0.40;99.90
9043;DHT22;4556;49.150;8.808;2023-04-06T05:18:09;-0.60;99.90
9043;DHT22;4556;49.150;8.808;2023-04-06T05:20:37;-0.60;99.90
9043;DHT22;4556;49.150;8.808;2023-04-06T05:23:05;-0.60;99.90
9043;DHT22;4556;49.150;8.808;2023-04-06T05:25:33;-0.50;99.90
9043;DHT22;4556;49.150;8.808;2023-04-06T05:28:01;-0.50;99.90
9043;DHT22;4556;49.150;8.808;2023-04-06T05:30:28;-0.50;99.90
9043;DHT22;4556;49.150;8.808;2023-04-06T05:32:56;-0.40;99.90
9043;DHT22;4556;49.150;8.808;2023-04-06T05:35:23;0.20;99.90
9043;DHT22;4556;49.150;8.808;2023-04-06T05:37:50;-0.10;99.90
9043;DHT22;4556;49.150;8.808;2023-04-06T05:40:18;-0.60;99.90
9043;DHT22;4556;49.150;8.808;2023-04-06T05:42:47;-0.50;99.90
9043;DHT22;4556;49.150;8.808;2023-04-06T05:45:15;-0.70;99.90
9043;DHT22;4556;49.150;8.808;2023-04-06T05:47:44;-0.70;99.90
9043;DHT22;4556;49.150;8.808;2023-04-06T05:50:11;-0.70;99.90
9043;DHT22;4556;49.150;8.808;2023-04-06T05:52:39;-0.60;99.90
9043;DHT22;4556;49.150;8.808;2023-04-06T05:55:09;-0.60;99.90
9043;DHT22;4556;49.150;8.808;2023-04-06T05:57:36;-0.40;99.90
9043;DHT22;4556;49.150;8.808;2023-04-06T06:00:09;-0.30;99.90
9043;DHT22;4556;49.150;8.808;2023-04-06T06:02:37;-0.10;99.90
9043;DHT22;4556;49.150;8.808;2023-04-06T06:05:05;0.00;99.90
9043;DHT22;4556;49.150;8.808;2023-04-06T06:07:32;0.30;99.90
9043;DHT22;4556;49.150;8.808;2023-04-06T06:09:59;0.40;99.90
9043;DHT22;4556;49.150;8.808;2023-04-06T06:12:26;0.60;99.90
9043;DHT22;4556;49.150;8.808;2023-04-06T06:14:54;1.70;99.90
9043;DHT22;4556;49.150;8.808;2023-04-06T06:17:22;1.00;99.90
9043;DHT22;4556;49.150;8.808;2023-04-06T06:19:50;1.30;99.90
9043;DHT22;4556;49.150;8.808;2023-04-06T06:22:17;1.20;99.90
9043;DHT22;4556;49.150;8.808;2023-04-06T06:24:44;1.30;99.90
9043;DHT22;4556;49.150;8.808;2023-04-06T06:27:12;1.30;99.90
9043;DHT22;4556;49.150;8.808;2023-04-06T06:29:39;1.50;99.90
9043;DHT22;4556;49.150;8.808;2023-04-06T06:32:06;1.60;99.90
9043;DHT22;4556;49.150;8.808;2023-04-06T06:34:36;1.70;99.90
9043;DHT22;4556;49.150;8.808;2023-04-06T06:37:03;1.80;99.90
9043;DHT22;4556;49.150;8.808;2023-04-06T06:39:30;2.00;99.90
9043;DHT22;4556;49.150;8.808;2023-04-06T06:41:57;2.00;99.90
9043;DHT22;4556;49.150;8.808;2023-04-06T06:44:26;3.00;99.90
9043;DHT22;4556;49.150;8.808;2023-04-06T06:46:53;3.30;99.90
9043;DHT22;4556;49.150;8.808;2023-04-06T06:49:21;2.40;99.90
9043;DHT22;4556;49.150;8.808;2023-04-06T06:51:49;2.60;99.90
9043;DHT22;4556;49.150;8.808;2023-04-06T06:54:17;2.80;99.90
9043;DHT22;4556;49.150;8.808;2023-04-06T06:56:44;2.80;99.90
9043;DHT22;4556;49.150;8.808;2023-04-06T06:59:11;3.30;99.90
9043;DHT22;4556;49.150;8.808;2023-04-06T07:01:38;3.70;99.90
9043;DHT22;4556;49.150;8.808;2023-04-06T07:04:05;4.00;99.90
9043;DHT22;4556;49.150;8.808;2023-04-06T07:06:35;4.50;99.90
9043;DHT22;4556;49.150;8.808;2023-04-06T07:09:04;3.60;99.90
9043;DHT22;4556;49.150;8.808;2023-04-06T07:11:31;3.70;99.90
9043;DHT22;4556;49.150;8.808;2023-04-06T10:47:00;13.20;99.90
9043;DHT22;4556;49.150;8.808;2023-04-06T10:49:27;12.00;99.20
9043;DHT22;4556;49.150;8.808;2023-04-06T10:51:55;12.10;99.90
9043;DHT22;4556;49.150;8.808;2023-04-06T10:54:24;12.20;99.90
9043;DHT22;4556;49.150;8.808;2023-04-06T10:56:51;12.20;99.60
9043;DHT22;4556;49.150;8.808;2023-04-06T10:59:20;12.30;99.90
9043;DHT22;4556;49.150;8.808;2023-04-06T11:01:48;12.40;99.90
9043;DHT22;4556;49.150;8.808;2023-04-06T11:04:17;12.60;99.60
9043;DHT22;4556;49.150;8.808;2023-04-06T11:06:47;12.60;98.70
9043;DHT22;4556;49.150;8.808;2023-04-06T11:09:23;12.70;97.80
9043;DHT22;4556;49.150;8.808;2023-04-06T11:11:52;12.60;99.10
9043;DHT22;4556;49.150;8.808;2023-04-06T11:14:20;12.60;99.90
9043;DHT22;4556;49.150;8.808;2023-04-06T11:16:47;12.60;99.90
9043;DHT22;4556;49.150;8.808;2023-04-06T11:19:17;12.70;99.90
9043;DHT22;4556;49.150;8.808;2023-04-06T11:21:45;12.80;99.90
9043;DHT22;4556;49.150;8.808;2023-04-06T11:24:15;12.80;99.90
9043;DHT22;4556;49.150;8.808;2023-04-06T11:26:43;12.70;99.90
9043;DHT22;4556;49.150;8.808;2023-04-06T11:29:12;12.90;97.20
9043;DHT22;4556;49.150;8.808;2023-04-06T11:31:44;12.80;99.90
9043;DHT22;4556;49.150;8.808;2023-04-06T11:34:15;12.80;98.70
9043;DHT22;4556;49.150;8.808;2023-04-06T11:36:45;12.70;99.90
9043;DHT22;4556;49.150;8.808;2023-04-06T11:39:13;12.70;99.90
9043;DHT22;4556;49.150;8.808;2023-04-06T11:41:40;12.60;96.70
9043;DHT22;4556;49.150;8.808;2023-04-06T11:44:07;12.50;99.50
9043;DHT22;4556;49.150;8.808;2023-04-06T11:46:34;12.40;97.80
9043;DHT22;4556;49.150;8.808;2023-04-06T11:49:02;12.50;97.30
9043;DHT22;4556;49.150;8.808;2023-04-06T11:51:29;12.50;98.80
9043;DHT22;4556;49.150;8.808;2023-04-06T11:53:58;12.40;98.30
9043;DHT22;4556;49.150;8.808;2023-04-06T11:56:27;12.50;99.90
9043;DHT22;4556;49.150;8.808;2023-04-06T11:58:55;12.60;99.90
9043;DHT22;4556;49.150;8.808;2023-04-06T12:01:22;12.70;99.90
9043;DHT22;4556;49.150;8.808;2023-04-06T12:03:51;12.90;99.90
9043;DHT22;4556;49.150;8.808;2023-04-06T12:06:18;12.90;99.90
9043;DHT22;4556;49.150;8.808;2023-04-06T12:08:45;12.90;99.90
9043;DHT22;4556;49.150;8.808;2023-04-06T12:11:13;13.00;99.90
9043;DHT22;4556;49.150;8.808;2023-04-06T12:13:41;13.10;99.90
9043;DHT22;4556;49.150;8.808;2023-04-06T12:16:08;13.20;99.80
9043;DHT22;4556;49.150;8.808;2023-04-06T12:18:35;13.30;98.30
9043;DHT22;4556;49.150;8.808;2023-04-06T12:21:02;13.40;99.60
9043;DHT22;4556;49.150;8.808;2023-04-06T12:23:32;13.70;98.50
9043;DHT22;4556;49.150;8.808;2023-04-06T12:25:59;13.70;97.50
9043;DHT22;4556;49.150;8.808;2023-04-06T12:28:28;13.80;95.80
9043;DHT22;4556;49.150;8.808;2023-04-06T12:30:55;13.60;96.60
9043;DHT22;4556;49.150;8.808;2023-04-06T12:33:22;13.50;95.90
9043;DHT22;4556;49.150;8.808;2023-04-06T12:35:50;13.30;94.60
9043;DHT22;4556;49.150;8.808;2023-04-06T12:38:18;13.40;98.60
9043;DHT22;4556;49.150;8.808;2023-04-06T12:40:46;13.50;95.70
9043;DHT22;4556;49.150;8.808;2023-04-06T12:43:15;13.40;97.00
9043;DHT22;4556;49.150;8.808;2023-04-06T12:45:43;13.40;98.20
9043;DHT22;4556;49.150;8.808;2023-04-06T12:48:11;13.60;97.50
9043;DHT22;4556;49.150;8.808;2023-04-06T12:50:38;13.70;98.20
9043;DHT22;4556;49.150;8.808;2023-04-06T12:53:05;13.80;98.60
9043;DHT22;4556;49.150;8.808;2023-04-06T12:55:32;13.90;95.60
9043;DHT22;4556;49.150;8.808;2023-04-06T12:58:01;14.10;98.10
9043;DHT22;4556;49.150;8.808;2023-04-06T13:00:28;14.20;98.60
9043;DHT22;4556;49.150;8.808;2023-04-06T13:02:57;14.10;96.60
9043;DHT22;4556;49.150;8.808;2023-04-06T13:05:25;14.00;96.80
9043;DHT22;4556;49.150;8.808;2023-04-06T13:07:52;14.00;95.30
9043;DHT22;4556;49.150;8.808;2023-04-06T13:10:19;13.90;94.70
9043;DHT22;4556;49.150;8.808;2023-04-06T13:12:46;13.90;94.40
9043;DHT22;4556;49.150;8.808;2023-04-06T13:15:13;13.60;95.70
9043;DHT22;4556;49.150;8.808;2023-04-06T13:17:40;13.40;95.10
9043;DHT22;4556;49.150;8.808;2023-04-06T13:20:10;13.40;96.70
9043;DHT22;4556;49.150;8.808;2023-04-06T13:22:37;13.60;97.40
9043;DHT22;4556;49.150;8.808;2023-04-06T13:25:04;13.70;97.40
9043;DHT22;4556;49.150;8.808;2023-04-06T13:27:31;13.70;97.60
9043;DHT22;4556;49.150;8.808;2023-04-06T13:30:01;13.70;95.90
9043;DHT22;4556;49.150;8.808;2023-04-06T13:32:28;13.70;98.30
9043;DHT22;4556;49.150;8.808;2023-04-06T13:34:55;13.80;99.00
9043;DHT22;4556;49.150;8.808;2023-04-06T13:37:25;13.80;97.60
9043;DHT22;4556;49.150;8.808;2023-04-06T13:39:52;14.00;95.80
9043;DHT22;4556;49.150;8.808;2023-04-06T13:42:20;13.90;96.70
9043;DHT22;4556;49.150;8.808;2023-04-06T13:44:47;13.70;95.80
9043;DHT22;4556;49.150;8.808;2023-04-06T13:47:16;13.60;97.40
9043;DHT22;4556;49.150;8.808;2023-04-06T13:49:43;13.50;95.90
9043;DHT22;4556;49.150;8.808;2023-04-06T13:52:10;13.60;97.60
9043;DHT22;4556;49.150;8.808;2023-04-06T13:54:39;13.90;99.30
9043;DHT22;4556;49.150;8.808;2023-04-06T13:57:06;14.10;98.40
9043;DHT22;4556;49.150;8.808;2023-04-06T13:59:33;14.20;98.50
9043;DHT22;4556;49.150;8.808;2023-04-06T14:02:01;14.30;96.70
9043;DHT22;4556;49.150;8.808;2023-04-06T14:04:28;14.20;97.10
9043;DHT22;4556;49.150;8.808;2023-04-06T14:06:55;14.10;97.40
9043;DHT22;4556;49.150;8.808;2023-04-06T14:09:22;14.20;98.60
9043;DHT22;4556;49.150;8.808;2023-04-06T14:11:51;14.10;96.90
9043;DHT22;4556;49.150;8.808;2023-04-06T14:14:18;14.10;97.20
9043;DHT22;4556;49.150;8.808;2023-04-06T14:16:46;14.10;95.60
9043;DHT22;4556;49.150;8.808;2023-04-06T14:19:17;14.30;96.70
9043;DHT22;4556;49.150;8.808;2023-04-06T14:21:45;13.80;97.20
9043;DHT22;4556;49.150;8.808;2023-04-06T14:24:12;13.70;99.10
9043;DHT22;4556;49.150;8.808;2023-04-06T14:26:40;13.70;98.80
9043;DHT22;4556;49.150;8.808;2023-04-06T14:29:09;13.60;97.40
9043;DHT22;4556;49.150;8.808;2023-04-06T14:31:36;13.50;98.20
9043;DHT22;4556;49.150;8.808;2023-04-06T14:34:04;13.30;97.30
9043;DHT22;4556;49.150;8.808;2023-04-06T14:36:31;13.30;98.20
9043;DHT22;4556;49.150;8.808;2023-04-06T14:39:02;13.20;98.10
9043;DHT22;4556;49.150;8.808;2023-04-06T14:41:31;13.30;98.00
9043;DHT22;4556;49.150;8.808;2023-04-06T14:43:59;13.30;99.10
9043;DHT22;4556;49.150;8.808;2023-04-06T14:46:28;13.40;97.80
9043;DHT22;4556;49.150;8.808;2023-04-06T14:48:55;13.30;97.50
9043;DHT22;4556;49.150;8.808;2023-04-06T14:51:24;13.30;97.70
9043;DHT22;4556;49.150;8.808;2023-04-06T14:53:52;13.40;99.70
9043;DHT22;4556;49.150;8.808;2023-04-06T14:56:20;13.30;98.60
9043;DHT22;4556;49.150;8.808;2023-04-06T14:58:48;13.30;98.00
9043;DHT22;4556;49.150;8.808;2023-04-06T15:01:15;13.30;98.70
9043;DHT22;4556;49.150;8.808;2023-04-06T15:03:44;13.10;98.40
9043;DHT22;4556;49.150;8.808;2023-04-06T15:06:13;13.10;98.80
9043;DHT22;4556;49.150;8.808;2023-04-06T15:08:41;13.00;98.30
9043;DHT22;4556;49.150;8.808;2023-04-06T15:11:09;13.10;99.70
9043;DHT22;4556;49.150;8.808;2023-04-06T15:13:36;13.10;99.70
9043;DHT22;4556;49.150;8.808;2023-04-06T15:16:03;13.10;99.00
9043;DHT22;4556;49.150;8.808;2023-04-06T15:18:30;13.10;97.80
9043;DHT22;4556;49.150;8.808;2023-04-06T15:20:59;13.00;97.70
9043;DHT22;4556;49.150;8.808;2023-04-06T15:23:26;13.00;98.90
9043;DHT22;4556;49.150;8.808;2023-04-06T15:25:55;13.00;99.40
9043;DHT22;4556;49.150;8.808;2023-04-06T15:28:22;13.00;95.50
9043;DHT22;4556;49.150;8.808;2023-04-06T15:30:49;12.90;97.90
9043;DHT22;4556;49.150;8.808;2023-04-06T15:33:16;12.80;97.80
9043;DHT22;4556;49.150;8.808;2023-04-06T15:35:43;12.90;98.80
9043;DHT22;4556;49.150;8.808;2023-04-06T15:38:12;12.90;96.80
9043;DHT22;4556;49.150;8.808;2023-04-06T15:40:43;12.90;96.40
9043;DHT22;4556;49.150;8.808;2023-04-06T15:43:10;13.50;96.90
9043;DHT22;4556;49.150;8.808;2023-04-06T15:45:37;12.70;95.80
9043;DHT22;4556;49.150;8.808;2023-04-06T15:48:05;12.70;96.10
9043;DHT22;4556;49.150;8.808;2023-04-06T15:50:32;12.70;96.40
9043;DHT22;4556;49.150;8.808;2023-04-06T15:52:59;12.60;95.00
9043;DHT22;4556;49.150;8.808;2023-04-06T15:55:27;12.20;93.50
9043;DHT22;4556;49.150;8.808;2023-04-06T15:57:55;13.10;93.60
9043;DHT22;4556;49.150;8.808;2023-04-06T16:00:22;13.40;97.10
9043;DHT22;4556;49.150;8.808;2023-04-06T16:02:50;12.40;94.80
9043;DHT22;4556;49.150;8.808;2023-04-06T16:05:16;12.50;94.90
9043;DHT22;4556;49.150;8.808;2023-04-06T16:07:43;12.70;92.80
9043;DHT22;4556;49.150;8.808;2023-04-06T16:10:11;12.40;93.90
9043;DHT22;4556;49.150;8.808;2023-04-06T16:12:39;12.40;94.70
9043;DHT22;4556;49.150;8.808;2023-04-06T16:15:07;12.30;96.60
9043;DHT22;4556;49.150;8.808;2023-04-06T16:17:35;12.20;95.90
9043;DHT22;4556;49.150;8.808;2023-04-06T16:20:03;12.30;94.80
9043;DHT22;4556;49.150;8.808;2023-04-06T16:22:30;12.20;94.10
9043;DHT22;4556;49.150;8.808;2023-04-06T16:24:57;12.20;96.30
9043;DHT22;4556;49.150;8.808;2023-04-06T16:27:24;12.30;96.40
9043;DHT22;4556;49.150;8.808;2023-04-06T16:29:53;12.20;96.80
9043;DHT22;4556;49.150;8.808;2023-04-06T16:32:20;12.40;97.10
9043;DHT22;4556;49.150;8.808;2023-04-06T16:34:48;12.10;97.60
9043;DHT22;4556;49.150;8.808;2023-04-06T16:37:15;12.00;97.80
9043;DHT22;4556;49.150;8.808;2023-04-06T16:39:42;12.00;98.20
9043;DHT22;4556;49.150;8.808;2023-04-06T16:42:09;12.00;97.90
9043;DHT22;4556;49.150;8.808;2023-04-06T16:44:36;11.90;98.60
9043;DHT22;4556;49.150;8.808;2023-04-06T16:47:05;12.00;99.10
9043;DHT22;4556;49.150;8.808;2023-04-06T16:49:32;11.80;99.30
9043;DHT22;4556;49.150;8.808;2023-04-06T16:51:59;11.70;99.60
9043;DHT22;4556;49.150;8.808;2023-04-06T16:54:28;11.80;98.80
9043;DHT22;4556;49.150;8.808;2023-04-06T16:56:55;11.60;99.70
9043;DHT22;4556;49.150;8.808;2023-04-06T16:59:22;11.70;99.70
9043;DHT22;4556;49.150;8.808;2023-04-06T17:01:50;11.30;98.80
9043;DHT22;4556;49.150;8.808;2023-04-06T17:04:19;11.50;99.30
9043;DHT22;4556;49.150;8.808;2023-04-06T17:06:46;11.60;99.90
9043;DHT22;4556;49.150;8.808;2023-04-06T17:09:13;11.50;99.90
9043;DHT22;4556;49.150;8.808;2023-04-06T17:11:41;11.40;99.40
9043;DHT22;4556;49.150;8.808;2023-04-06T17:14:08;11.30;99.70
9043;DHT22;4556;49.150;8.808;2023-04-06T17:16:35;11.30;99.90
9043;DHT22;4556;49.150;8.808;2023-04-06T17:19:02;11.70;99.90
9043;DHT22;4556;49.150;8.808;2023-04-06T17:21:30;11.60;99.90
9043;DHT22;4556;49.150;8.808;2023-04-06T17:23:57;11.10;99.90
9043;DHT22;4556;49.150;8.808;2023-04-06T17:26:24;11.10;99.90
9043;DHT22;4556;49.150;8.808;2023-04-06T17:28:52;11.10;99.90
9043;DHT22;4556;49.150;8.808;2023-04-06T17:31:18;11.20;99.90
9043;DHT22;4556;49.150;8.808;2023-04-06T17:33:46;11.00;99.90
9043;DHT22;4556;49.150;8.808;2023-04-06T17:36:14;10.90;99.90
9043;DHT22;4556;49.150;8.808;2023-04-06T17:38:42;10.90;99.90
9043;DHT22;4556;49.150;8.808;2023-04-06T17:41:11;11.00;99.90
9043;DHT22;4556;49.150;8.808;2023-04-06T17:43:39;11.00;99.90
9043;DHT22;4556;49.150;8.808;2023-04-06T17:46:06;10.80;99.90
9043;DHT22;4556;49.150;8.808;2023-04-06T17:48:33;10.70;99.90
9043;DHT22;4556;49.150;8.808;2023-04-06T17:51:00;10.70;99.90
9043;DHT22;4556;49.150;8.808;2023-04-06T17:53:27;10.60;99.90
9043;DHT22;4556;49.150;8.808;2023-04-06T17:56:01;10.50;99.90
9043;DHT22;4556;49.150;8.808;2023-04-06T17:58:28;10.40;99.90
9043;DHT22;4556;49.150;8.808;2023-04-06T18:00:55;10.40;99.90
9043;DHT22;4556;49.150;8.808;2023-04-06T18:03:22;10.40;99.90
9043;DHT22;4556;49.150;8.808;2023-04-06T18:05:49;10.30;99.90
9043;DHT22;4556;49.150;8.808;2023-04-06T18:08:16;10.50;99.90
9043;DHT22;4556;49.150;8.808;2023-04-06T18:10:43;10.20;99.90
9043;DHT22;4556;49.150;8.808;2023-04-06T18:13:12;10.20;99.90
9043;DHT22;4556;49.150;8.808;2023-04-06T18:15:39;10.20;99.90
9043;DHT22;4556;49.150;8.808;2023-04-06T18:18:06;10.20;99.90
9043;DHT22;4556;49.150;8.808;2023-04-06T18:20:38;10.20;99.90
9043;DHT22;4556;49.150;8.808;2023-04-06T18:23:06;10.70;99.90
9043;DHT22;4556;49.150;8.808;2023-04-06T18:25:37;10.70;99.90
9043;DHT22;4556;49.150;8.808;2023-04-06T18:28:04;10.20;99.90
9043;DHT22;4556;49.150;8.808;2023-04-06T18:30:33;10.20;99.90
9043;DHT22;4556;49.150;8.808;2023-04-06T18:33:00;10.10;99.90
9043;DHT22;4556;49.150;8.808;2023-04-06T18:35:28;9.90;99.90
9043;DHT22;4556;49.150;8.808;2023-04-06T18:37:55;11.20;99.90
9043;DHT22;4556;49.150;8.808;2023-04-06T18:40:33;9.90;99.90
9043;DHT22;4556;49.150;8.808;2023-04-06T18:43:01;9.80;99.90
9043;DHT22;4556;49.150;8.808;2023-04-06T18:45:30;9.90;99.90
9043;DHT22;4556;49.150;8.808;2023-04-06T18:48:01;9.80;99.90
9043;DHT22;4556;49.150;8.808;2023-04-06T18:50:30;10.10;99.90
9043;DHT22;4556;49.150;8.808;2023-04-06T18:52:58;9.80;99.90
9043;DHT22;4556;49.150;8.808;2023-04-06T18:55:25;9.70;99.90
9043;DHT22;4556;49.150;8.808;2023-04-06T18:57:52;10.70;99.90
9043;DHT22;4556;49.150;8.808;2023-04-06T19:00:21;9.70;99.90
9043;DHT22;4556;49.150;8.808;2023-04-06T19:02:48;9.60;99.90
9043;DHT22;4556;49.150;8.808;2023-04-06T19:05:16;9.80;99.90
9043;DHT22;4556;49.150;8.808;2023-04-06T19:07:43;9.70;99.90
9043;DHT22;4556;49.150;8.808;2023-04-06T19:10:14;9.70;99.90
9043;DHT22;4556;49.150;8.808;2023-04-06T19:12:40;9.70;99.90
9043;DHT22;4556;49.150;8.808;2023-04-06T19:15:08;9.70;99.90
9043;DHT22;4556;49.150;8.808;2023-04-06T19:17:36;9.70;99.90
9043;DHT22;4556;49.150;8.808;2023-04-06T19:20:04;9.70;99.90
9043;DHT22;4556;49.150;8.808;2023-04-06T19:22:35;9.70;99.90
9043;DHT22;4556;49.150;8.808;2023-04-06T19:25:02;10.60;99.90
9043;DHT22;4556;49.150;8.808;2023-04-06T19:27:29;9.60;99.90
9043;DHT22;4556;49.150;8.808;2023-04-06T19:29:59;9.60;99.90
9043;DHT22;4556;49.150;8.808;2023-04-06T19:32:26;9.50;99.90
9043;DHT22;4556;49.150;8.808;2023-04-06T19:34:54;9.50;99.90
9043;DHT22;4556;49.150;8.808;2023-04-06T19:37:24;9.50;99.90
9043;DHT22;4556;49.150;8.808;2023-04-06T19:39:52;9.70;99.90
9043;DHT22;4556;49.150;8.808;2023-04-06T19:42:19;9.60;99.90